Terminal Aerodrome Forecast
Issued by NWS Cleveland, OH

Home | Current Version | Previous Version | Text Only | Print | Product List | Glossary Off
Versions: 1 2 3 4 5 6 7 8 9 10 11 12 13 14 15 16 17 18

000
FTUS41 KCLE 240529
TAFERI
TAF
KERI 240529Z 2406/2506 VRB04KT P6SM BKN200
      TEMPO 2410/2412 5SM BR
     FM241400 20006KT P6SM FEW035 BKN200
     FM241700 32010KT P6SM FEW120 BKN200
     FM242100 26008KT P6SM FEW120 BKN200
     FM250200 19008KT P6SM SCT120 BKN200=

USA.gov is the U.S. government's official web portal to all federal, state and local government web resources and services.